sensor_id;sensor_type;location;lat;lon;timestamp;pressure;altitude;pressure_sealevel;temperature;humidity
31771;BME280;18343;50.152;8.182;2023-02-15T00:00:02;98797.59;;;2.77;100.00
31771;BME280;18343;50.152;8.182;2023-02-15T00:02:47;98796.63;;;2.78;100.00
31771;BME280;18343;50.152;8.182;2023-02-15T00:05:31;98795.88;;;2.76;100.00
31771;BME280;18343;50.152;8.182;2023-02-15T00:08:16;98794.09;;;2.77;100.00
31771;BME280;18343;50.152;8.182;2023-02-15T00:11:05;98801.84;;;2.80;100.00
31771;BME280;18343;50.152;8.182;2023-02-15T00:13:50;98781.44;;;2.80;100.00
31771;BME280;18343;50.152;8.182;2023-02-15T00:16:37;98790.47;;;2.78;100.00
31771;BME280;18343;50.152;8.182;2023-02-15T00:19:22;98789.97;;;2.72;100.00
31771;BME280;18343;50.152;8.182;2023-02-15T00:22:07;98786.06;;;2.65;100.00
31771;BME280;18343;50.152;8.182;2023-02-15T00:24:52;98785.31;;;2.63;100.00
31771;BME280;18343;50.152;8.182;2023-02-15T00:27:37;98775.88;;;2.59;100.00
31771;BME280;18343;50.152;8.182;2023-02-15T00:30:21;98768.50;;;2.39;100.00
31771;BME280;18343;50.152;8.182;2023-02-15T00:33:07;98764.25;;;2.36;100.00
31771;BME280;18343;50.152;8.182;2023-02-15T00:35:56;98765.63;;;2.29;100.00
31771;BME280;18343;50.152;8.182;2023-02-15T00:38:41;98762.34;;;2.26;100.00
31771;BME280;18343;50.152;8.182;2023-02-15T00:41:26;98762.22;;;2.27;100.00
31771;BME280;18343;50.152;8.182;2023-02-15T00:44:11;98755.44;;;2.23;100.00
31771;BME280;18343;50.152;8.182;2023-02-15T00:46:56;98758.09;;;2.23;100.00
31771;BME280;18343;50.152;8.182;2023-02-15T00:49:42;98757.88;;;2.26;100.00
31771;BME280;18343;50.152;8.182;2023-02-15T00:52:27;98753.75;;;2.22;100.00
31771;BME280;18343;50.152;8.182;2023-02-15T00:55:11;98759.78;;;2.24;100.00
31771;BME280;18343;50.152;8.182;2023-02-15T00:57:56;98761.06;;;2.31;100.00
31771;BME280;18343;50.152;8.182;2023-02-15T01:00:43;98759.16;;;2.33;100.00
31771;BME280;18343;50.152;8.182;2023-02-15T01:03:28;98748.75;;;2.30;100.00
31771;BME280;18343;50.152;8.182;2023-02-15T01:06:16;98748.75;;;2.30;100.00
31771;BME280;18343;50.152;8.182;2023-02-15T01:09:00;98748.97;;;2.27;100.00
31771;BME280;18343;50.152;8.182;2023-02-15T01:11:45;98743.44;;;2.30;100.00
31771;BME280;18343;50.152;8.182;2023-02-15T01:14:29;98744.41;;;2.29;100.00
31771;BME280;18343;50.152;8.182;2023-02-15T01:17:14;98738.88;;;2.32;100.00
31771;BME280;18343;50.152;8.182;2023-02-15T01:19:59;98745.03;;;2.33;100.00
31771;BME280;18343;50.152;8.182;2023-02-15T01:22:45;98743.13;;;2.35;100.00
31771;BME280;18343;50.152;8.182;2023-02-15T01:25:29;98743.84;;;2.37;100.00
31771;BME280;18343;50.152;8.182;2023-02-15T01:28:14;98742.78;;;2.40;100.00
31771;BME280;18343;50.152;8.182;2023-02-15T01:30:58;98739.91;;;2.43;100.00
31771;BME280;18343;50.152;8.182;2023-02-15T01:33:43;98731.38;;;2.50;100.00
31771;BME280;18343;50.152;8.182;2023-02-15T01:36:27;98736.81;;;2.49;100.00
31771;BME280;18343;50.152;8.182;2023-02-15T01:39:13;98734.16;;;2.49;100.00
31771;BME280;18343;50.152;8.182;2023-02-15T01:41:58;98737.31;;;2.54;100.00
31771;BME280;18343;50.152;8.182;2023-02-15T01:44:52;98738.69;;;2.59;100.00
31771;BME280;18343;50.152;8.182;2023-02-15T01:47:40;98741.56;;;2.56;100.00
31771;BME280;18343;50.152;8.182;2023-02-15T01:50:29;98740.94;;;2.53;100.00
31771;BME280;18343;50.152;8.182;2023-02-15T01:53:21;98736.41;;;2.42;100.00
31771;BME280;18343;50.152;8.182;2023-02-15T01:56:13;98739.19;;;2.41;100.00
31771;BME280;18343;50.152;8.182;2023-02-15T01:59:04;98736.00;;;2.35;100.00
31771;BME280;18343;50.152;8.182;2023-02-15T02:01:52;98739.63;;;2.34;100.00
31771;BME280;18343;50.152;8.182;2023-02-15T02:04:43;98729.00;;;2.34;100.00
31771;BME280;18343;50.152;8.182;2023-02-15T02:07:34;98734.31;;;2.34;100.00
31771;BME280;18343;50.152;8.182;2023-02-15T02:10:23;98725.59;;;2.32;100.00
31771;BME280;18343;50.152;8.182;2023-02-15T02:13:09;98722.94;;;2.32;100.00
31771;BME280;18343;50.152;8.182;2023-02-15T02:15:59;98718.50;;;2.33;100.00
31771;BME280;18343;50.152;8.182;2023-02-15T02:19:02;98708.50;;;2.36;100.00
31771;BME280;18343;50.152;8.182;2023-02-15T02:22:32;98705.53;;;2.41;100.00
31771;BME280;18343;50.152;8.182;2023-02-15T02:26:24;98706.91;;;2.34;100.00
31771;BME280;18343;50.152;8.182;2023-02-15T02:33:32;98705.53;;;2.41;100.00
31771;BME280;18343;50.152;8.182;2023-02-15T02:36:25;98701.28;;;2.38;100.00
31771;BME280;18343;50.152;8.182;2023-02-15T02:39:23;98713.25;;;2.44;100.00
31771;BME280;18343;50.152;8.182;2023-02-15T02:42:18;98707.09;;;2.44;100.00
31771;BME280;18343;50.152;8.182;2023-02-15T02:45:09;98702.97;;;2.40;100.00
31771;BME280;18343;50.152;8.182;2023-02-15T02:47:58;98720.19;;;2.34;100.00
31771;BME280;18343;50.152;8.182;2023-02-15T02:50:45;98719.97;;;2.24;100.00
31771;BME280;18343;50.152;8.182;2023-02-15T02:53:31;98713.81;;;2.24;100.00
31771;BME280;18343;50.152;8.182;2023-02-15T02:56:23;98711.81;;;2.27;100.00
31771;BME280;18343;50.152;8.182;2023-02-15T02:59:16;98702.88;;;2.28;100.00
31771;BME280;18343;50.152;8.182;2023-02-15T03:02:07;98697.56;;;2.28;100.00
31771;BME280;18343;50.152;8.182;2023-02-15T03:04:58;98701.19;;;2.27;100.00
31771;BME280;18343;50.152;8.182;2023-02-15T03:07:48;98695.25;;;2.24;100.00
31771;BME280;18343;50.152;8.182;2023-02-15T03:10:35;98691.25;;;2.18;100.00
31771;BME280;18343;50.152;8.182;2023-02-15T03:13:22;98689.78;;;2.01;100.00
31771;BME280;18343;50.152;8.182;2023-02-15T03:16:09;98691.69;;;2.12;100.00
31771;BME280;18343;50.152;8.182;2023-02-15T03:18:58;98689.88;;;2.13;100.00
31771;BME280;18343;50.152;8.182;2023-02-15T03:21:47;98673.31;;;2.09;100.00
31771;BME280;18343;50.152;8.182;2023-02-15T03:24:37;98670.47;;;1.99;100.00
31771;BME280;18343;50.152;8.182;2023-02-15T03:27:28;98670.66;;;2.09;100.00
31771;BME280;18343;50.152;8.182;2023-02-15T03:30:19;98665.03;;;2.14;100.00
31771;BME280;18343;50.152;8.182;2023-02-15T03:33:06;98658.94;;;2.24;100.00
31771;BME280;18343;50.152;8.182;2023-02-15T03:35:56;98655.41;;;2.36;100.00
31771;BME280;18343;50.152;8.182;2023-02-15T03:38:51;98644.25;;;2.44;100.00
31771;BME280;18343;50.152;8.182;2023-02-15T03:41:44;98655.34;;;2.49;100.00
31771;BME280;18343;50.152;8.182;2023-02-15T03:44:33;98654.38;;;2.50;100.00
31771;BME280;18343;50.152;8.182;2023-02-15T03:47:25;98651.00;;;2.48;100.00
31771;BME280;18343;50.152;8.182;2023-02-15T03:50:15;98645.56;;;2.50;100.00
31771;BME280;18343;50.152;8.182;2023-02-15T03:53:05;98650.44;;;2.56;100.00
31771;BME280;18343;50.152;8.182;2023-02-15T03:55:54;98648.41;;;2.59;100.00
31771;BME280;18343;50.152;8.182;2023-02-15T03:58:41;98642.03;;;2.62;100.00
31771;BME280;18343;50.152;8.182;2023-02-15T04:01:30;98645.41;;;2.64;100.00
31771;BME280;18343;50.152;8.182;2023-02-15T04:04:20;98631.75;;;2.57;100.00
31771;BME280;18343;50.152;8.182;2023-02-15T04:07:08;98645.97;;;2.56;100.00
31771;BME280;18343;50.152;8.182;2023-02-15T04:09:52;98634.72;;;2.53;100.00
31771;BME280;18343;50.152;8.182;2023-02-15T04:12:37;98633.72;;;2.43;100.00
31771;BME280;18343;50.152;8.182;2023-02-15T04:15:23;98633.00;;;2.41;100.00
31771;BME280;18343;50.152;8.182;2023-02-15T04:18:08;98637.69;;;2.37;100.00
31771;BME280;18343;50.152;8.182;2023-02-15T04:20:52;98639.19;;;2.28;100.00
31771;BME280;18343;50.152;8.182;2023-02-15T04:23:37;98642.06;;;2.25;100.00
31771;BME280;18343;50.152;8.182;2023-02-15T04:26:21;98638.22;;;2.29;100.00
31771;BME280;18343;50.152;8.182;2023-02-15T04:29:06;98649.88;;;2.16;100.00
31771;BME280;18343;50.152;8.182;2023-02-15T04:31:54;98656.50;;;2.21;100.00
31771;BME280;18343;50.152;8.182;2023-02-15T04:34:39;98655.78;;;2.19;100.00
31771;BME280;18343;50.152;8.182;2023-02-15T04:37:23;98654.94;;;2.19;100.00
31771;BME280;18343;50.152;8.182;2023-02-15T04:40:11;98649.28;;;2.23;100.00
31771;BME280;18343;50.152;8.182;2023-02-15T04:42:56;98645.16;;;2.19;100.00
31771;BME280;18343;50.152;8.182;2023-02-15T04:45:41;98654.03;;;1.94;100.00
31771;BME280;18343;50.152;8.182;2023-02-15T04:48:27;98642.34;;;1.97;100.00
31771;BME280;18343;50.152;8.182;2023-02-15T04:51:12;98641.50;;;2.09;100.00
31771;BME280;18343;50.152;8.182;2023-02-15T04:53:56;98644.94;;;2.22;100.00
31771;BME280;18343;50.152;8.182;2023-02-15T04:56:41;98642.16;;;2.24;100.00
31771;BME280;18343;50.152;8.182;2023-02-15T04:59:26;98632.81;;;2.31;100.00
31771;BME280;18343;50.152;8.182;2023-02-15T05:02:10;98630.91;;;2.33;100.00
31771;BME280;18343;50.152;8.182;2023-02-15T05:04:56;98633.66;;;2.31;100.00
31771;BME280;18343;50.152;8.182;2023-02-15T05:15:29;98630.03;;;2.09;100.00
31771;BME280;18343;50.152;8.182;2023-02-15T05:18:15;98629.06;;;2.10;100.00
31771;BME280;18343;50.152;8.182;2023-02-15T05:21:01;98625.34;;;2.12;100.00
31771;BME280;18343;50.152;8.182;2023-02-15T05:23:45;98631.19;;;2.17;100.00
31771;BME280;18343;50.152;8.182;2023-02-15T05:26:30;98628.16;;;2.22;100.00
31771;BME280;18343;50.152;8.182;2023-02-15T05:29:15;98628.97;;;2.11;100.00
31771;BME280;18343;50.152;8.182;2023-02-15T05:32:00;98629.59;;;2.15;100.00
31771;BME280;18343;50.152;8.182;2023-02-15T05:34:44;98628.22;;;2.09;100.00
31771;BME280;18343;50.152;8.182;2023-02-15T05:37:30;98617.31;;;2.01;100.00
31771;BME280;18343;50.152;8.182;2023-02-15T05:40:15;98629.28;;;2.07;100.00
31771;BME280;18343;50.152;8.182;2023-02-15T05:43:00;98617.38;;;2.12;100.00
31771;BME280;18343;50.152;8.182;2023-02-15T05:45:45;98612.09;;;2.12;100.00
31771;BME280;18343;50.152;8.182;2023-02-15T05:48:31;98617.38;;;2.12;100.00
31771;BME280;18343;50.152;8.182;2023-02-15T05:51:16;98619.97;;;2.01;100.00
31771;BME280;18343;50.152;8.182;2023-02-15T05:54:02;98623.88;;;2.08;100.00
31771;BME280;18343;50.152;8.182;2023-02-15T05:56:46;98626.00;;;2.03;100.00
31771;BME280;18343;50.152;8.182;2023-02-15T05:59:31;98637.41;;;1.80;100.00
31771;BME280;18343;50.152;8.182;2023-02-15T06:02:16;98623.81;;;1.84;100.00
31771;BME280;18343;50.152;8.182;2023-02-15T06:05:00;98622.13;;;1.83;100.00
31771;BME280;18343;50.152;8.182;2023-02-15T06:07:45;98632.53;;;1.74;100.00
31771;BME280;18343;50.152;8.182;2023-02-15T06:10:33;98631.22;;;1.92;100.00
31771;BME280;18343;50.152;8.182;2023-02-15T06:13:17;98634.81;;;2.03;100.00
31771;BME280;18343;50.152;8.182;2023-02-15T06:16:02;98635.44;;;2.07;100.00
31771;BME280;18343;50.152;8.182;2023-02-15T06:18:47;98639.25;;;2.03;100.00
31771;BME280;18343;50.152;8.182;2023-02-15T06:21:31;98636.06;;;2.11;100.00
31771;BME280;18343;50.152;8.182;2023-02-15T06:24:17;98648.41;;;1.99;100.00
31771;BME280;18343;50.152;8.182;2023-02-15T06:27:03;98660.50;;;2.03;100.00
31771;BME280;18343;50.152;8.182;2023-02-15T06:29:48;98649.44;;;2.09;100.00
31771;BME280;18343;50.152;8.182;2023-02-15T06:32:32;98658.41;;;1.83;100.00
31771;BME280;18343;50.152;8.182;2023-02-15T06:35:17;98654.88;;;1.95;100.00
31771;BME280;18343;50.152;8.182;2023-02-15T06:38:02;98647.75;;;2.08;100.00
31771;BME280;18343;50.152;8.182;2023-02-15T06:40:47;98651.88;;;2.12;100.00
31771;BME280;18343;50.152;8.182;2023-02-15T06:43:33;98649.44;;;2.09;100.00
31771;BME280;18343;50.152;8.182;2023-02-15T06:46:18;98656.66;;;2.07;100.00
31771;BME280;18343;50.152;8.182;2023-02-15T06:49:02;98657.00;;;2.02;100.00
31771;BME280;18343;50.152;8.182;2023-02-15T06:51:47;98659.44;;;2.06;100.00
31771;BME280;18343;50.152;8.182;2023-02-15T06:54:31;98659.97;;;1.98;100.00
31771;BME280;18343;50.152;8.182;2023-02-15T06:57:16;98653.91;;;1.96;100.00
31771;BME280;18343;50.152;8.182;2023-02-15T07:00:03;98663.78;;;1.94;100.00
31771;BME280;18343;50.152;8.182;2023-02-15T07:02:53;98661.38;;;1.91;100.00
31771;BME280;18343;50.152;8.182;2023-02-15T07:05:38;98671.25;;;1.89;100.00
31771;BME280;18343;50.152;8.182;2023-02-15T07:08:23;98662.88;;;1.69;100.00
31771;BME280;18343;50.152;8.182;2023-02-15T07:11:08;98669.97;;;1.82;100.00
31771;BME280;18343;50.152;8.182;2023-02-15T07:13:53;98662.22;;;1.91;100.00
31771;BME280;18343;50.152;8.182;2023-02-15T07:16:39;98663.81;;;1.81;100.00
31771;BME280;18343;50.152;8.182;2023-02-15T07:19:24;98662.44;;;1.88;100.00
31771;BME280;18343;50.152;8.182;2023-02-15T07:22:08;98671.75;;;1.94;100.00
31771;BME280;18343;50.152;8.182;2023-02-15T07:24:53;98671.75;;;1.94;100.00
31771;BME280;18343;50.152;8.182;2023-02-15T07:32:04;98667.13;;;1.85;100.00
31771;BME280;18343;50.152;8.182;2023-02-15T07:34:48;98661.50;;;1.89;100.00
31771;BME280;18343;50.152;8.182;2023-02-15T07:37:33;98663.34;;;2.00;100.00
31771;BME280;18343;50.152;8.182;2023-02-15T07:40:18;98657.66;;;1.81;100.00
31771;BME280;18343;50.152;8.182;2023-02-15T07:43:02;98656.47;;;1.97;100.00
31771;BME280;18343;50.152;8.182;2023-02-15T07:45:46;98649.88;;;2.03;100.00
31771;BME280;18343;50.152;8.182;2023-02-15T07:48:32;98639.69;;;2.10;100.00
31771;BME280;18343;50.152;8.182;2023-02-15T07:51:17;98636.19;;;2.09;100.00
31771;BME280;18343;50.152;8.182;2023-02-15T07:54:02;98640.31;;;2.13;100.00
31771;BME280;18343;50.152;8.182;2023-02-15T07:56:47;98643.50;;;2.06;100.00
31771;BME280;18343;50.152;8.182;2023-02-15T07:59:32;98642.84;;;2.15;100.00
31771;BME280;18343;50.152;8.182;2023-02-15T08:02:16;98650.72;;;2.03;100.00
31771;BME280;18343;50.152;8.182;2023-02-15T08:05:02;98653.50;;;2.02;100.00
31771;BME280;18343;50.152;8.182;2023-02-15T08:07:47;98655.56;;;1.73;100.00
31771;BME280;18343;50.152;8.182;2023-02-15T08:10:32;98652.72;;;1.63;100.00
31771;BME280;18343;50.152;8.182;2023-02-15T08:13:17;98649.28;;;1.74;100.00
31771;BME280;18343;50.152;8.182;2023-02-15T08:16:01;98645.16;;;1.70;100.00
31771;BME280;18343;50.152;8.182;2023-02-15T08:18:46;98643.47;;;1.82;100.00
31771;BME280;18343;50.152;8.182;2023-02-15T08:21:34;98634.72;;;1.92;100.00
31771;BME280;18343;50.152;8.182;2023-02-15T08:24:21;98630.34;;;2.04;100.00
31771;BME280;18343;50.152;8.182;2023-02-15T08:27:08;98632.34;;;2.13;100.00
31771;BME280;18343;50.152;8.182;2023-02-15T08:29:53;98635.19;;;1.86;100.00
31771;BME280;18343;50.152;8.182;2023-02-15T08:32:38;98628.69;;;1.90;100.00
31771;BME280;18343;50.152;8.182;2023-02-15T08:35:22;98629.09;;;1.97;100.00
31771;BME280;18343;50.152;8.182;2023-02-15T08:38:08;98628.69;;;1.90;100.00
31771;BME280;18343;50.152;8.182;2023-02-15T08:40:53;98624.00;;;1.94;100.00
31771;BME280;18343;50.152;8.182;2023-02-15T08:43:41;98619.84;;;2.02;100.00
31771;BME280;18343;50.152;8.182;2023-02-15T08:46:28;98636.19;;;1.96;100.00
31771;BME280;18343;50.152;8.182;2023-02-15T08:49:17;98625.78;;;1.57;100.00
31771;BME280;18343;50.152;8.182;2023-02-15T08:52:02;98613.84;;;1.88;100.00
31771;BME280;18343;50.152;8.182;2023-02-15T08:54:48;98616.88;;;2.07;100.00
31771;BME280;18343;50.152;8.182;2023-02-15T08:57:35;98608.47;;;2.13;100.00
31771;BME280;18343;50.152;8.182;2023-02-15T09:00:21;98610.81;;;2.18;100.00
31771;BME280;18343;50.152;8.182;2023-02-15T09:03:06;98599.28;;;1.93;100.00
31771;BME280;18343;50.152;8.182;2023-02-15T09:05:58;98602.09;;;2.16;100.00
31771;BME280;18343;50.152;8.182;2023-02-15T09:08:43;98597.03;;;2.00;100.00
31771;BME280;18343;50.152;8.182;2023-02-15T09:11:33;98595.88;;;2.04;100.00
31771;BME280;18343;50.152;8.182;2023-02-15T09:14:20;98591.41;;;2.28;100.00
31771;BME280;18343;50.152;8.182;2023-02-15T09:17:04;98600.94;;;2.07;100.00
31771;BME280;18343;50.152;8.182;2023-02-15T09:19:49;98597.84;;;1.89;100.00
31771;BME280;18343;50.152;8.182;2023-02-15T09:22:34;98599.38;;;2.04;100.00
31771;BME280;18343;50.152;8.182;2023-02-15T09:25:18;98594.03;;;2.17;100.00
31771;BME280;18343;50.152;8.182;2023-02-15T09:28:04;98592.81;;;2.21;100.00
31771;BME280;18343;50.152;8.182;2023-02-15T09:30:49;98589.94;;;2.24;100.00
31771;BME280;18343;50.152;8.182;2023-02-15T09:33:35;98596.94;;;2.25;100.00
31771;BME280;18343;50.152;8.182;2023-02-15T09:36:22;98598.72;;;2.37;100.00
31771;BME280;18343;50.152;8.182;2023-02-15T09:39:10;98602.25;;;2.25;100.00
31771;BME280;18343;50.152;8.182;2023-02-15T09:42:24;98605.75;;;2.50;100.00
31771;BME280;18343;50.152;8.182;2023-02-15T09:45:30;98597.13;;;2.59;100.00
31771;BME280;18343;50.152;8.182;2023-02-15T09:48:39;98593.06;;;2.42;100.00
31771;BME280;18343;50.152;8.182;2023-02-15T09:52:06;98598.28;;;2.07;100.00
31771;BME280;18343;50.152;8.182;2023-02-15T09:55:09;98597.47;;;2.30;100.00
31771;BME280;18343;50.152;8.182;2023-02-15T09:58:07;98613.38;;;2.30;100.00
31771;BME280;18343;50.152;8.182;2023-02-15T10:01:07;98610.09;;;2.27;100.00
31771;BME280;18343;50.152;8.182;2023-02-15T10:04:12;98614.13;;;2.32;100.00
31771;BME280;18343;50.152;8.182;2023-02-15T10:07:12;98616.56;;;2.35;100.00
31771;BME280;18343;50.152;8.182;2023-02-15T10:10:13;98616.66;;;2.10;100.00
31771;BME280;18343;50.152;8.182;2023-02-15T10:13:17;98620.59;;;2.04;100.00
31771;BME280;18343;50.152;8.182;2023-02-15T10:16:17;98616.53;;;2.12;100.00
31771;BME280;18343;50.152;8.182;2023-02-15T10:19:11;98624.31;;;2.02;100.00
31771;BME280;18343;50.152;8.182;2023-02-15T10:22:17;98624.22;;;2.27;100.00
31771;BME280;18343;50.152;8.182;2023-02-15T10:25:23;98629.19;;;2.32;100.00
31771;BME280;18343;50.152;8.182;2023-02-15T10:28:18;98632.47;;;2.35;100.00
31771;BME280;18343;50.152;8.182;2023-02-15T10:31:08;98624.56;;;2.47;100.00
31771;BME280;18343;50.152;8.182;2023-02-15T10:34:14;98624.22;;;2.51;100.00
31771;BME280;18343;50.152;8.182;2023-02-15T10:37:21;98610.22;;;2.73;100.00
31771;BME280;18343;50.152;8.182;2023-02-15T10:40:21;98614.31;;;2.77;100.00
31771;BME280;18343;50.152;8.182;2023-02-15T10:43:42;98618.78;;;2.77;100.00
31771;BME280;18343;50.152;8.182;2023-02-15T10:46:56;98614.84;;;2.58;100.00
31771;BME280;18343;50.152;8.182;2023-02-15T10:50:06;98623.88;;;2.56;100.00
31771;BME280;18343;50.152;8.182;2023-02-15T10:53:13;98622.75;;;2.47;100.00
31771;BME280;18343;50.152;8.182;2023-02-15T10:56:14;98617.75;;;2.31;100.00
31771;BME280;18343;50.152;8.182;2023-02-15T10:59:27;98620.78;;;2.38;100.00
31771;BME280;18343;50.152;8.182;2023-02-15T11:02:24;98630.44;;;2.15;100.00
31771;BME280;18343;50.152;8.182;2023-02-15T11:05:29;98622.59;;;2.37;100.00
31771;BME280;18343;50.152;8.182;2023-02-15T11:08:19;98622.72;;;2.36;100.00
31771;BME280;18343;50.152;8.182;2023-02-15T11:11:06;98623.34;;;2.40;100.00
31771;BME280;18343;50.152;8.182;2023-02-15T11:13:57;98613.50;;;2.53;100.00
31771;BME280;18343;50.152;8.182;2023-02-15T11:16:48;98613.16;;;2.57;100.00
31771;BME280;18343;50.152;8.182;2023-02-15T11:19:37;98605.72;;;2.15;100.00
31771;BME280;18343;50.152;8.182;2023-02-15T11:22:25;98603.94;;;2.26;100.00
31771;BME280;18343;50.152;8.182;2023-02-15T11:25:19;98594.84;;;2.65;100.00
31771;BME280;18343;50.152;8.182;2023-02-15T11:28:13;98583.78;;;2.83;100.00
31771;BME280;18343;50.152;8.182;2023-02-15T11:31:13;98589.44;;;2.78;100.00
31771;BME280;18343;50.152;8.182;2023-02-15T11:34:04;98586.59;;;2.92;100.00
31771;BME280;18343;50.152;8.182;2023-02-15T11:36:52;98591.47;;;2.98;100.00
31771;BME280;18343;50.152;8.182;2023-02-15T11:39:40;98581.69;;;3.10;100.00
31771;BME280;18343;50.152;8.182;2023-02-15T11:42:25;98581.94;;;3.18;100.00
31771;BME280;18343;50.152;8.182;2023-02-15T11:45:22;98579.59;;;2.91;100.00
31771;BME280;18343;50.152;8.182;2023-02-15T11:48:12;98570.31;;;3.08;100.00
31771;BME280;18343;50.152;8.182;2023-02-15T11:50:57;98572.03;;;3.09;100.00
31771;BME280;18343;50.152;8.182;2023-02-15T11:53:42;98561.84;;;3.03;100.00
31771;BME280;18343;50.152;8.182;2023-02-15T11:56:31;98558.03;;;3.18;100.00
31771;BME280;18343;50.152;8.182;2023-02-15T11:59:24;98556.22;;;3.19;100.00
31771;BME280;18343;50.152;8.182;2023-02-15T12:02:17;98560.56;;;3.31;100.00
31771;BME280;18343;50.152;8.182;2023-02-15T12:05:06;98554.03;;;3.13;100.00
31771;BME280;18343;50.152;8.182;2023-02-15T12:08:00;98555.22;;;3.09;100.00
31771;BME280;18343;50.152;8.182;2023-02-15T12:10:58;98560.81;;;3.17;100.00
31771;BME280;18343;50.152;8.182;2023-02-15T12:13:58;98548.09;;;2.98;100.00
31771;BME280;18343;50.152;8.182;2023-02-15T12:16:45;98546.06;;;3.13;100.00
31771;BME280;18343;50.152;8.182;2023-02-15T12:19:37;98547.66;;;3.37;100.00
31771;BME280;18343;50.152;8.182;2023-02-15T12:22:25;98538.84;;;3.48;100.00
31771;BME280;18343;50.152;8.182;2023-02-15T12:25:22;98539.06;;;3.34;100.00
31771;BME280;18343;50.152;8.182;2023-02-15T12:28:25;98539.56;;;3.39;100.00
31771;BME280;18343;50.152;8.182;2023-02-15T12:31:22;98539.66;;;3.37;100.00
31771;BME280;18343;50.152;8.182;2023-02-15T12:34:12;98537.63;;;3.41;100.00
31771;BME280;18343;50.152;8.182;2023-02-15T12:37:10;98543.78;;;3.53;100.00
31771;BME280;18343;50.152;8.182;2023-02-15T12:40:02;98532.28;;;3.08;100.00
31771;BME280;18343;50.152;8.182;2023-02-15T12:42:59;98528.44;;;3.34;100.00
31771;BME280;18343;50.152;8.182;2023-02-15T12:45:44;98534.38;;;3.49;100.00
31771;BME280;18343;50.152;8.182;2023-02-15T12:48:29;98530.97;;;3.13;100.00
31771;BME280;18343;50.152;8.182;2023-02-15T12:51:15;98522.63;;;3.29;100.00
31771;BME280;18343;50.152;8.182;2023-02-15T12:54:00;98512.97;;;3.39;100.00
31771;BME280;18343;50.152;8.182;2023-02-15T12:57:18;98500.16;;;3.33;100.00
31771;BME280;18343;50.152;8.182;2023-02-15T13:00:23;98513.19;;;3.14;100.00
31771;BME280;18343;50.152;8.182;2023-02-15T13:03:17;98501.75;;;3.24;100.00
31771;BME280;18343;50.152;8.182;2023-02-15T13:06:05;98504.03;;;3.40;100.00
31771;BME280;18343;50.152;8.182;2023-02-15T13:08:51;98491.09;;;3.47;100.00
31771;BME280;18343;50.152;8.182;2023-02-15T13:11:37;98500.84;;;3.57;100.00
31771;BME280;18343;50.152;8.182;2023-02-15T13:14:31;98495.03;;;3.63;100.00
31771;BME280;18343;50.152;8.182;2023-02-15T13:17:16;98489.03;;;3.50;100.00
31771;BME280;18343;50.152;8.182;2023-02-15T13:20:05;98488.31;;;3.48;100.00
31771;BME280;18343;50.152;8.182;2023-02-15T13:22:56;98486.50;;;3.49;100.00
31771;BME280;18343;50.152;8.182;2023-02-15T13:25:45;98482.22;;;3.68;100.00
31771;BME280;18343;50.152;8.182;2023-02-15T13:28:39;98479.75;;;3.88;100.00
31771;BME280;18343;50.152;8.182;2023-02-15T13:31:28;98489.47;;;3.78;100.00
31771;BME280;18343;50.152;8.182;2023-02-15T13:34:19;98481.13;;;3.71;100.00
31771;BME280;18343;50.152;8.182;2023-02-15T13:37:12;98468.88;;;3.91;100.00
31771;BME280;18343;50.152;8.182;2023-02-15T13:40:04;98480.19;;;4.04;100.00
31771;BME280;18343;50.152;8.182;2023-02-15T13:42:56;98468.69;;;3.71;100.00
31771;BME280;18343;50.152;8.182;2023-02-15T13:46:06;98475.94;;;3.81;100.00
31771;BME280;18343;50.152;8.182;2023-02-15T13:49:09;98464.94;;;3.74;100.00
31771;BME280;18343;50.152;8.182;2023-02-15T13:52:08;98465.84;;;3.84;100.00
31771;BME280;18343;50.152;8.182;2023-02-15T13:55:31;98460.72;;;3.60;100.00
31771;BME280;18343;50.152;8.182;2023-02-15T13:59:05;98455.47;;;3.81;100.00
31771;BME280;18343;50.152;8.182;2023-02-15T14:01:57;98463.34;;;3.83;100.00
31771;BME280;18343;50.152;8.182;2023-02-15T14:04:57;98455.28;;;3.62;100.00
31771;BME280;18343;50.152;8.182;2023-02-15T14:07:55;98450.00;;;3.39;100.00
31771;BME280;18343;50.152;8.182;2023-02-15T14:10:53;98453.38;;;3.42;100.00
31771;BME280;18343;50.152;8.182;2023-02-15T14:14:09;98450.31;;;3.68;100.00
31771;BME280;18343;50.152;8.182;2023-02-15T14:17:03;98444.88;;;3.59;100.00
31771;BME280;18343;50.152;8.182;2023-02-15T14:19:53;98443.06;;;3.59;100.00
31771;BME280;18343;50.152;8.182;2023-02-15T14:22:42;98437.44;;;3.53;100.00
31771;BME280;18343;50.152;8.182;2023-02-15T14:25:34;98438.09;;;3.77;100.00
31771;BME280;18343;50.152;8.182;2023-02-15T14:28:31;98450.84;;;3.83;100.00
31771;BME280;18343;50.152;8.182;2023-02-15T14:31:23;98447.94;;;3.43;100.00
31771;BME280;18343;50.152;8.182;2023-02-15T14:34:21;98450.69;;;3.64;100.00
31771;BME280;18343;50.152;8.182;2023-02-15T14:37:08;98450.06;;;3.71;100.00
31771;BME280;18343;50.152;8.182;2023-02-15T14:40:00;98450.38;;;3.46;100.00
31771;BME280;18343;50.152;8.182;2023-02-15T14:42:53;98451.78;;;3.61;100.00
31771;BME280;18343;50.152;8.182;2023-02-15T14:45:58;98445.00;;;3.68;100.00
31771;BME280;18343;50.152;8.182;2023-02-15T14:48:48;98446.94;;;3.66;100.00
31771;BME280;18343;50.152;8.182;2023-02-15T14:51:59;98445.53;;;3.51;100.00
31771;BME280;18343;50.152;8.182;2023-02-15T14:54:58;98437.75;;;3.59;100.00
31771;BME280;18343;50.152;8.182;2023-02-15T14:57:56;98442.94;;;3.61;100.00
31771;BME280;18343;50.152;8.182;2023-02-15T15:00:42;98433.91;;;3.52;100.00
31771;BME280;18343;50.152;8.182;2023-02-15T15:03:27;98428.44;;;3.65;100.00
31771;BME280;18343;50.152;8.182;2023-02-15T15:06:25;98435.81;;;3.61;100.00
31771;BME280;18343;50.152;8.182;2023-02-15T15:09:14;98432.78;;;3.66;100.00
31771;BME280;18343;50.152;8.182;2023-02-15T15:12:39;98428.56;;;3.63;100.00
31771;BME280;18343;50.152;8.182;2023-02-15T15:15:47;98429.75;;;3.70;100.00
31771;BME280;18343;50.152;8.182;2023-02-15T15:18:47;98430.63;;;3.60;100.00